sensor_id;sensor_type;location;lat;lon;timestamp;temperature;humidity
5394;DHT22;2720;52.396;10.064;2023-04-01T00:01:21;9.10;99.90
5394;DHT22;2720;52.396;10.064;2023-04-01T00:03:48;9.20;99.90
5394;DHT22;2720;52.396;10.064;2023-04-01T00:06:16;9.20;99.90
5394;DHT22;2720;52.396;10.064;2023-04-01T00:08:44;9.20;99.90
5394;DHT22;2720;52.396;10.064;2023-04-01T00:11:11;9.10;99.90
5394;DHT22;2720;52.396;10.064;2023-04-01T00:13:38;9.10;99.90
5394;DHT22;2720;52.396;10.064;2023-04-01T00:16:07;9.10;99.90
5394;DHT22;2720;52.396;10.064;2023-04-01T00:18:34;9.10;99.90
5394;DHT22;2720;52.396;10.064;2023-04-01T00:21:01;9.20;99.90
5394;DHT22;2720;52.396;10.064;2023-04-01T00:23:28;9.10;99.90
5394;DHT22;2720;52.396;10.064;2023-04-01T00:25:55;9.10;99.90
5394;DHT22;2720;52.396;10.064;2023-04-01T00:28:22;9.10;99.90
5394;DHT22;2720;52.396;10.064;2023-04-01T00:30:49;9.10;99.90
5394;DHT22;2720;52.396;10.064;2023-04-01T00:33:18;9.00;99.90
5394;DHT22;2720;52.396;10.064;2023-04-01T00:35:46;9.00;99.90
5394;DHT22;2720;52.396;10.064;2023-04-01T00:38:13;9.00;99.90
5394;DHT22;2720;52.396;10.064;2023-04-01T00:40:42;9.00;99.90
5394;DHT22;2720;52.396;10.064;2023-04-01T00:43:12;9.00;99.90
5394;DHT22;2720;52.396;10.064;2023-04-01T00:45:41;9.00;99.90
5394;DHT22;2720;52.396;10.064;2023-04-01T00:48:11;9.00;99.90
5394;DHT22;2720;52.396;10.064;2023-04-01T00:50:44;9.00;99.90
5394;DHT22;2720;52.396;10.064;2023-04-01T00:53:13;9.00;99.90
5394;DHT22;2720;52.396;10.064;2023-04-01T00:55:43;9.00;99.90
5394;DHT22;2720;52.396;10.064;2023-04-01T00:58:15;9.00;99.90
5394;DHT22;2720;52.396;10.064;2023-04-01T01:00:45;9.00;99.90
5394;DHT22;2720;52.396;10.064;2023-04-01T01:03:13;9.00;99.90
5394;DHT22;2720;52.396;10.064;2023-04-01T01:05:59;9.00;99.90
5394;DHT22;2720;52.396;10.064;2023-04-01T01:08:39;9.00;99.90
5394;DHT22;2720;52.396;10.064;2023-04-01T01:11:11;9.00;99.90
5394;DHT22;2720;52.396;10.064;2023-04-01T01:13:43;9.00;99.90
5394;DHT22;2720;52.396;10.064;2023-04-01T01:16:15;9.00;99.90
5394;DHT22;2720;52.396;10.064;2023-04-01T01:18:51;8.90;99.90
5394;DHT22;2720;52.396;10.064;2023-04-01T01:21:41;8.90;99.90
5394;DHT22;2720;52.396;10.064;2023-04-01T01:27:04;8.90;99.90
5394;DHT22;2720;52.396;10.064;2023-04-01T01:35:34;8.90;99.90
5394;DHT22;2720;52.396;10.064;2023-04-01T01:38:06;8.90;99.90
5394;DHT22;2720;52.396;10.064;2023-04-01T01:40:35;8.90;99.90
5394;DHT22;2720;52.396;10.064;2023-04-01T01:43:06;8.80;99.90
5394;DHT22;2720;52.396;10.064;2023-04-01T01:45:36;8.80;99.90
5394;DHT22;2720;52.396;10.064;2023-04-01T01:48:07;8.80;99.90
5394;DHT22;2720;52.396;10.064;2023-04-01T01:50:37;8.80;99.90
5394;DHT22;2720;52.396;10.064;2023-04-01T01:53:08;8.80;99.90
5394;DHT22;2720;52.396;10.064;2023-04-01T01:55:37;8.80;99.90
5394;DHT22;2720;52.396;10.064;2023-04-01T01:58:07;8.70;99.90
5394;DHT22;2720;52.396;10.064;2023-04-01T02:00:38;8.70;99.90
5394;DHT22;2720;52.396;10.064;2023-04-01T02:03:06;8.70;99.90
5394;DHT22;2720;52.396;10.064;2023-04-01T02:05:34;8.70;99.90
5394;DHT22;2720;52.396;10.064;2023-04-01T02:08:06;8.70;99.90
5394;DHT22;2720;52.396;10.064;2023-04-01T02:10:37;8.70;99.90
5394;DHT22;2720;52.396;10.064;2023-04-01T02:13:09;8.70;99.90
5394;DHT22;2720;52.396;10.064;2023-04-01T02:15:42;8.70;99.90
5394;DHT22;2720;52.396;10.064;2023-04-01T02:18:12;8.70;99.90
5394;DHT22;2720;52.396;10.064;2023-04-01T02:20:40;8.70;99.90
5394;DHT22;2720;52.396;10.064;2023-04-01T02:23:10;8.70;99.90
5394;DHT22;2720;52.396;10.064;2023-04-01T02:25:38;8.70;99.90
5394;DHT22;2720;52.396;10.064;2023-04-01T02:28:07;8.70;99.90
5394;DHT22;2720;52.396;10.064;2023-04-01T02:30:38;8.80;99.90
5394;DHT22;2720;52.396;10.064;2023-04-01T02:33:06;8.80;99.90
5394;DHT22;2720;52.396;10.064;2023-04-01T02:35:34;8.80;99.90
5394;DHT22;2720;52.396;10.064;2023-04-01T02:38:03;8.80;99.90
5394;DHT22;2720;52.396;10.064;2023-04-01T02:40:41;8.80;99.90
5394;DHT22;2720;52.396;10.064;2023-04-01T02:43:08;8.90;99.90
5394;DHT22;2720;52.396;10.064;2023-04-01T02:45:35;8.80;99.90
5394;DHT22;2720;52.396;10.064;2023-04-01T02:48:02;8.80;99.90
5394;DHT22;2720;52.396;10.064;2023-04-01T02:50:30;8.80;99.90
5394;DHT22;2720;52.396;10.064;2023-04-01T02:52:57;8.80;99.90
5394;DHT22;2720;52.396;10.064;2023-04-01T02:55:24;8.80;99.90
5394;DHT22;2720;52.396;10.064;2023-04-01T02:57:52;8.80;99.90
5394;DHT22;2720;52.396;10.064;2023-04-01T03:00:19;8.80;99.90
5394;DHT22;2720;52.396;10.064;2023-04-01T03:02:46;8.80;99.90
5394;DHT22;2720;52.396;10.064;2023-04-01T03:05:13;8.80;99.90
5394;DHT22;2720;52.396;10.064;2023-04-01T03:07:40;8.80;99.90
5394;DHT22;2720;52.396;10.064;2023-04-01T03:10:08;8.80;99.90
5394;DHT22;2720;52.396;10.064;2023-04-01T03:12:35;8.80;99.90
5394;DHT22;2720;52.396;10.064;2023-04-01T03:15:04;8.80;99.90
5394;DHT22;2720;52.396;10.064;2023-04-01T03:17:31;8.80;99.90
5394;DHT22;2720;52.396;10.064;2023-04-01T03:19:58;8.90;99.90
5394;DHT22;2720;52.396;10.064;2023-04-01T03:22:25;8.80;99.90
5394;DHT22;2720;52.396;10.064;2023-04-01T03:24:52;8.80;99.90
5394;DHT22;2720;52.396;10.064;2023-04-01T03:27:19;8.80;99.90
5394;DHT22;2720;52.396;10.064;2023-04-01T03:29:46;8.80;99.90
5394;DHT22;2720;52.396;10.064;2023-04-01T03:32:14;8.80;99.90
5394;DHT22;2720;52.396;10.064;2023-04-01T03:34:41;8.80;99.90
5394;DHT22;2720;52.396;10.064;2023-04-01T03:37:08;8.80;99.90
5394;DHT22;2720;52.396;10.064;2023-04-01T03:39:35;8.80;99.90
5394;DHT22;2720;52.396;10.064;2023-04-01T03:42:02;8.80;99.90
5394;DHT22;2720;52.396;10.064;2023-04-01T03:44:32;8.80;99.90
5394;DHT22;2720;52.396;10.064;2023-04-01T03:46:59;8.80;99.90
5394;DHT22;2720;52.396;10.064;2023-04-01T03:49:29;8.80;99.90
5394;DHT22;2720;52.396;10.064;2023-04-01T03:51:57;8.80;99.90
5394;DHT22;2720;52.396;10.064;2023-04-01T03:54:24;8.80;99.90
5394;DHT22;2720;52.396;10.064;2023-04-01T03:56:51;8.80;99.90
5394;DHT22;2720;52.396;10.064;2023-04-01T03:59:18;8.80;99.90
5394;DHT22;2720;52.396;10.064;2023-04-01T04:01:47;8.80;99.90
5394;DHT22;2720;52.396;10.064;2023-04-01T04:04:14;8.80;99.90
5394;DHT22;2720;52.396;10.064;2023-04-01T04:06:42;8.80;99.90
5394;DHT22;2720;52.396;10.064;2023-04-01T04:09:09;8.80;99.90
5394;DHT22;2720;52.396;10.064;2023-04-01T04:11:36;8.70;99.90
5394;DHT22;2720;52.396;10.064;2023-04-01T04:14:03;8.80;99.90
5394;DHT22;2720;52.396;10.064;2023-04-01T04:16:30;8.80;99.90
5394;DHT22;2720;52.396;10.064;2023-04-01T04:18:57;8.80;99.90
5394;DHT22;2720;52.396;10.064;2023-04-01T04:21:24;8.80;99.90
5394;DHT22;2720;52.396;10.064;2023-04-01T04:23:53;8.80;99.90
5394;DHT22;2720;52.396;10.064;2023-04-01T04:26:20;8.70;99.90
5394;DHT22;2720;52.396;10.064;2023-04-01T04:28:47;8.80;99.90
5394;DHT22;2720;52.396;10.064;2023-04-01T04:31:19;8.80;99.90
5394;DHT22;2720;52.396;10.064;2023-04-01T04:33:46;8.70;99.90
5394;DHT22;2720;52.396;10.064;2023-04-01T04:36:13;8.70;99.90
5394;DHT22;2720;52.396;10.064;2023-04-01T04:38:40;8.70;99.90
5394;DHT22;2720;52.396;10.064;2023-04-01T04:41:10;8.70;99.90
5394;DHT22;2720;52.396;10.064;2023-04-01T04:43:38;8.70;99.90
5394;DHT22;2720;52.396;10.064;2023-04-01T04:46:06;8.70;99.90
5394;DHT22;2720;52.396;10.064;2023-04-01T04:48:33;8.70;99.90
5394;DHT22;2720;52.396;10.064;2023-04-01T04:51:00;8.80;99.90
5394;DHT22;2720;52.396;10.064;2023-04-01T04:53:27;8.70;99.90
5394;DHT22;2720;52.396;10.064;2023-04-01T04:55:54;8.70;99.90
5394;DHT22;2720;52.396;10.064;2023-04-01T04:58:22;8.70;99.90
5394;DHT22;2720;52.396;10.064;2023-04-01T05:00:49;8.70;99.90
5394;DHT22;2720;52.396;10.064;2023-04-01T05:03:16;8.70;99.90
5394;DHT22;2720;52.396;10.064;2023-04-01T05:05:49;8.70;99.90
5394;DHT22;2720;52.396;10.064;2023-04-01T05:08:16;8.70;99.90
5394;DHT22;2720;52.396;10.064;2023-04-01T05:10:42;8.70;99.90
5394;DHT22;2720;52.396;10.064;2023-04-01T05:13:10;8.80;99.90
5394;DHT22;2720;52.396;10.064;2023-04-01T05:15:38;8.70;99.90
5394;DHT22;2720;52.396;10.064;2023-04-01T05:18:06;8.80;99.90
5394;DHT22;2720;52.396;10.064;2023-04-01T05:20:32;8.80;99.90
5394;DHT22;2720;52.396;10.064;2023-04-01T05:23:00;8.80;99.90
5394;DHT22;2720;52.396;10.064;2023-04-01T05:25:27;8.80;99.90
5394;DHT22;2720;52.396;10.064;2023-04-01T05:27:54;8.80;99.90
5394;DHT22;2720;52.396;10.064;2023-04-01T05:30:21;8.80;99.90
5394;DHT22;2720;52.396;10.064;2023-04-01T05:32:49;8.90;99.90
5394;DHT22;2720;52.396;10.064;2023-04-01T05:35:16;8.90;99.90
5394;DHT22;2720;52.396;10.064;2023-04-01T05:37:43;8.90;99.90
5394;DHT22;2720;52.396;10.064;2023-04-01T05:40:10;8.90;99.90
5394;DHT22;2720;52.396;10.064;2023-04-01T05:42:37;8.90;99.90
5394;DHT22;2720;52.396;10.064;2023-04-01T05:45:06;8.90;99.90
5394;DHT22;2720;52.396;10.064;2023-04-01T05:47:33;8.90;99.90
5394;DHT22;2720;52.396;10.064;2023-04-01T05:50:01;8.90;99.90
5394;DHT22;2720;52.396;10.064;2023-04-01T05:52:28;9.00;99.90
5394;DHT22;2720;52.396;10.064;2023-04-01T05:54:55;9.00;99.90
5394;DHT22;2720;52.396;10.064;2023-04-01T05:57:22;9.10;99.90
5394;DHT22;2720;52.396;10.064;2023-04-01T05:59:49;9.20;99.90
5394;DHT22;2720;52.396;10.064;2023-04-01T06:02:17;9.20;99.90
5394;DHT22;2720;52.396;10.064;2023-04-01T06:04:44;9.20;99.90
5394;DHT22;2720;52.396;10.064;2023-04-01T06:07:14;9.30;99.90
5394;DHT22;2720;52.396;10.064;2023-04-01T06:09:41;9.40;99.90
5394;DHT22;2720;52.396;10.064;2023-04-01T06:15:18;9.50;99.90
5394;DHT22;2720;52.396;10.064;2023-04-01T06:18:01;9.60;99.90
5394;DHT22;2720;52.396;10.064;2023-04-01T06:20:37;9.60;99.90
5394;DHT22;2720;52.396;10.064;2023-04-01T06:23:22;9.70;99.90
5394;DHT22;2720;52.396;10.064;2023-04-01T06:26:03;9.70;99.90
5394;DHT22;2720;52.396;10.064;2023-04-01T06:29:03;9.80;99.90
5394;DHT22;2720;52.396;10.064;2023-04-01T06:31:43;9.90;99.90
5394;DHT22;2720;52.396;10.064;2023-04-01T06:40:22;10.30;99.90
5394;DHT22;2720;52.396;10.064;2023-04-01T06:43:05;10.40;99.90
5394;DHT22;2720;52.396;10.064;2023-04-01T06:45:40;10.50;99.90
5394;DHT22;2720;52.396;10.064;2023-04-01T06:48:31;10.50;99.90
5394;DHT22;2720;52.396;10.064;2023-04-01T06:51:09;10.60;99.90
5394;DHT22;2720;52.396;10.064;2023-04-01T06:53:44;10.70;99.90
5394;DHT22;2720;52.396;10.064;2023-04-01T06:56:16;10.80;99.90
5394;DHT22;2720;52.396;10.064;2023-04-01T07:01:18;11.20;99.90
5394;DHT22;2720;52.396;10.064;2023-04-01T07:03:50;11.20;99.90
5394;DHT22;2720;52.396;10.064;2023-04-01T07:06:25;11.40;99.90
5394;DHT22;2720;52.396;10.064;2023-04-01T07:08:55;11.60;99.90
5394;DHT22;2720;52.396;10.064;2023-04-01T07:11:31;11.80;99.90
5394;DHT22;2720;52.396;10.064;2023-04-01T07:14:01;12.00;99.90
5394;DHT22;2720;52.396;10.064;2023-04-01T07:16:32;12.10;99.90
5394;DHT22;2720;52.396;10.064;2023-04-01T07:19:02;12.20;99.90
5394;DHT22;2720;52.396;10.064;2023-04-01T07:21:34;12.10;99.90
5394;DHT22;2720;52.396;10.064;2023-04-01T07:24:06;12.10;99.90
5394;DHT22;2720;52.396;10.064;2023-04-01T07:26:37;12.20;99.90
5394;DHT22;2720;52.396;10.064;2023-04-01T07:29:08;12.30;99.90
5394;DHT22;2720;52.396;10.064;2023-04-01T07:34:41;12.50;99.90
5394;DHT22;2720;52.396;10.064;2023-04-01T07:37:15;12.70;99.90
5394;DHT22;2720;52.396;10.064;2023-04-01T07:39:48;12.80;99.90
5394;DHT22;2720;52.396;10.064;2023-04-01T07:42:26;12.80;99.90
5394;DHT22;2720;52.396;10.064;2023-04-01T07:45:04;13.00;99.90
5394;DHT22;2720;52.396;10.064;2023-04-01T07:47:44;12.90;99.90
5394;DHT22;2720;52.396;10.064;2023-04-01T07:50:18;12.90;99.90
5394;DHT22;2720;52.396;10.064;2023-04-01T07:52:55;13.00;99.90
5394;DHT22;2720;52.396;10.064;2023-04-01T07:55:32;13.00;99.90
5394;DHT22;2720;52.396;10.064;2023-04-01T07:58:09;13.10;99.90
5394;DHT22;2720;52.396;10.064;2023-04-01T08:00:44;13.00;99.90
5394;DHT22;2720;52.396;10.064;2023-04-01T08:03:26;13.00;99.90
5394;DHT22;2720;52.396;10.064;2023-04-01T08:06:00;13.00;99.90
5394;DHT22;2720;52.396;10.064;2023-04-01T08:08:36;13.20;99.90
5394;DHT22;2720;52.396;10.064;2023-04-01T08:11:13;13.10;99.90
5394;DHT22;2720;52.396;10.064;2023-04-01T08:13:48;13.20;99.90
5394;DHT22;2720;52.396;10.064;2023-04-01T08:16:22;13.20;99.90
5394;DHT22;2720;52.396;10.064;2023-04-01T08:18:56;13.20;99.90
5394;DHT22;2720;52.396;10.064;2023-04-01T08:21:32;13.30;99.90
5394;DHT22;2720;52.396;10.064;2023-04-01T08:24:10;13.30;99.90
5394;DHT22;2720;52.396;10.064;2023-04-01T08:26:40;13.30;99.90
5394;DHT22;2720;52.396;10.064;2023-04-01T08:29:15;13.20;99.90
5394;DHT22;2720;52.396;10.064;2023-04-01T08:31:48;13.20;99.90
5394;DHT22;2720;52.396;10.064;2023-04-01T08:34:19;13.40;99.90
5394;DHT22;2720;52.396;10.064;2023-04-01T08:36:50;13.50;99.90
5394;DHT22;2720;52.396;10.064;2023-04-01T08:39:22;13.50;99.90
5394;DHT22;2720;52.396;10.064;2023-04-01T08:48:14;13.80;99.90
5394;DHT22;2720;52.396;10.064;2023-04-01T08:51:02;13.90;99.90
5394;DHT22;2720;52.396;10.064;2023-04-01T08:53:50;14.00;99.90
5394;DHT22;2720;52.396;10.064;2023-04-01T08:56:22;13.90;99.90
5394;DHT22;2720;52.396;10.064;2023-04-01T08:59:04;13.80;99.90
5394;DHT22;2720;52.396;10.064;2023-04-01T09:05:36;14.20;99.90
5394;DHT22;2720;52.396;10.064;2023-04-01T09:20:38;14.60;99.90
5394;DHT22;2720;52.396;10.064;2023-04-01T09:23:37;14.40;99.90
5394;DHT22;2720;52.396;10.064;2023-04-01T09:26:27;14.50;99.90
5394;DHT22;2720;52.396;10.064;2023-04-01T09:29:10;14.50;99.90
5394;DHT22;2720;52.396;10.064;2023-04-01T09:31:49;14.30;99.90
5394;DHT22;2720;52.396;10.064;2023-04-01T09:37:34;14.60;99.90
5394;DHT22;2720;52.396;10.064;2023-04-01T09:40:16;14.80;99.90
5394;DHT22;2720;52.396;10.064;2023-04-01T09:42:49;15.10;99.90
5394;DHT22;2720;52.396;10.064;2023-04-01T09:45:37;15.40;99.90
5394;DHT22;2720;52.396;10.064;2023-04-01T09:48:20;15.60;99.90
5394;DHT22;2720;52.396;10.064;2023-04-01T09:51:00;15.80;99.90
5394;DHT22;2720;52.396;10.064;2023-04-01T09:53:47;15.90;99.90
5394;DHT22;2720;52.396;10.064;2023-04-01T09:56:47;16.10;99.90
5394;DHT22;2720;52.396;10.064;2023-04-01T10:02:42;16.70;99.90
5394;DHT22;2720;52.396;10.064;2023-04-01T10:05:44;16.70;99.90
5394;DHT22;2720;52.396;10.064;2023-04-01T10:17:58;15.80;99.90
5394;DHT22;2720;52.396;10.064;2023-04-01T10:21:11;15.50;99.90
5394;DHT22;2720;52.396;10.064;2023-04-01T10:24:12;15.90;99.90
5394;DHT22;2720;52.396;10.064;2023-04-01T10:33:21;14.90;99.90
5394;DHT22;2720;52.396;10.064;2023-04-01T10:39:31;14.90;99.90
5394;DHT22;2720;52.396;10.064;2023-04-01T10:54:46;13.90;99.90
5394;DHT22;2720;52.396;10.064;2023-04-01T10:57:43;13.30;99.90
5394;DHT22;2720;52.396;10.064;2023-04-01T11:00:32;13.20;99.90
5394;DHT22;2720;52.396;10.064;2023-04-01T11:09:58;12.40;99.90
5394;DHT22;2720;52.396;10.064;2023-04-01T11:15:55;12.10;99.90
5394;DHT22;2720;52.396;10.064;2023-04-01T11:18:56;12.00;99.90
5394;DHT22;2720;52.396;10.064;2023-04-01T11:21:59;12.00;99.90
5394;DHT22;2720;52.396;10.064;2023-04-01T11:25:05;12.00;99.90
5394;DHT22;2720;52.396;10.064;2023-04-01T11:28:09;11.70;99.90
5394;DHT22;2720;52.396;10.064;2023-04-01T11:30:53;12.70;99.90
5394;DHT22;2720;52.396;10.064;2023-04-01T11:33:29;13.00;99.90
5394;DHT22;2720;52.396;10.064;2023-04-01T11:36:14;13.40;99.90
5394;DHT22;2720;52.396;10.064;2023-04-01T11:39:02;13.80;99.90
5394;DHT22;2720;52.396;10.064;2023-04-01T11:41:40;14.20;99.90
5394;DHT22;2720;52.396;10.064;2023-04-01T11:44:17;14.60;99.90
5394;DHT22;2720;52.396;10.064;2023-04-01T11:47:07;14.70;99.90
5394;DHT22;2720;52.396;10.064;2023-04-01T11:49:50;14.80;99.90
5394;DHT22;2720;52.396;10.064;2023-04-01T11:52:32;14.80;99.90
5394;DHT22;2720;52.396;10.064;2023-04-01T11:55:22;14.30;99.90
5394;DHT22;2720;52.396;10.064;2023-04-01T11:58:05;14.10;99.90
5394;DHT22;2720;52.396;10.064;2023-04-01T12:00:47;14.00;99.90
5394;DHT22;2720;52.396;10.064;2023-04-01T12:06:30;13.60;99.90
5394;DHT22;2720;52.396;10.064;2023-04-01T12:09:08;13.20;99.90
5394;DHT22;2720;52.396;10.064;2023-04-01T12:11:44;13.10;99.90
5394;DHT22;2720;52.396;10.064;2023-04-01T12:14:19;13.10;99.90
5394;DHT22;2720;52.396;10.064;2023-04-01T12:17:02;13.00;99.90
5394;DHT22;2720;52.396;10.064;2023-04-01T12:19:39;13.00;99.90
5394;DHT22;2720;52.396;10.064;2023-04-01T12:22:28;12.90;99.90
5394;DHT22;2720;52.396;10.064;2023-04-01T12:25:14;13.10;99.90
5394;DHT22;2720;52.396;10.064;2023-04-01T12:27:49;13.40;99.90
5394;DHT22;2720;52.396;10.064;2023-04-01T12:33:45;13.50;99.90
5394;DHT22;2720;52.396;10.064;2023-04-01T12:36:24;13.30;99.90
5394;DHT22;2720;52.396;10.064;2023-04-01T12:39:11;13.30;99.90
5394;DHT22;2720;52.396;10.064;2023-04-01T12:41:52;13.40;99.90
5394;DHT22;2720;52.396;10.064;2023-04-01T12:44:33;13.40;99.90
5394;DHT22;2720;52.396;10.064;2023-04-01T12:50:21;13.40;99.90
5394;DHT22;2720;52.396;10.064;2023-04-01T12:53:09;13.50;99.90
5394;DHT22;2720;52.396;10.064;2023-04-01T12:55:41;13.60;99.90
5394;DHT22;2720;52.396;10.064;2023-04-01T12:58:40;13.60;99.90
5394;DHT22;2720;52.396;10.064;2023-04-01T13:01:41;13.60;99.90
5394;DHT22;2720;52.396;10.064;2023-04-01T13:13:33;13.00;99.90
5394;DHT22;2720;52.396;10.064;2023-04-01T13:16:10;13.00;99.90
5394;DHT22;2720;52.396;10.064;2023-04-01T13:18:46;12.80;99.90
5394;DHT22;2720;52.396;10.064;2023-04-01T13:21:23;12.50;99.90
5394;DHT22;2720;52.396;10.064;2023-04-01T13:26:33;11.80;99.90
5394;DHT22;2720;52.396;10.064;2023-04-01T13:29:06;11.50;99.90
5394;DHT22;2720;52.396;10.064;2023-04-01T13:31:53;11.10;99.90
5394;DHT22;2720;52.396;10.064;2023-04-01T13:34:35;10.90;99.90
5394;DHT22;2720;52.396;10.064;2023-04-01T13:37:20;10.60;99.90
5394;DHT22;2720;52.396;10.064;2023-04-01T13:40:15;10.40;99.90
5394;DHT22;2720;52.396;10.064;2023-04-01T13:42:49;10.30;99.90
5394;DHT22;2720;52.396;10.064;2023-04-01T13:45:20;10.10;99.90
5394;DHT22;2720;52.396;10.064;2023-04-01T13:48:27;10.00;99.90
5394;DHT22;2720;52.396;10.064;2023-04-01T13:57:14;10.00;99.90
5394;DHT22;2720;52.396;10.064;2023-04-01T14:00:03;9.90;99.90
5394;DHT22;2720;52.396;10.064;2023-04-01T14:02:50;9.80;99.90
5394;DHT22;2720;52.396;10.064;2023-04-01T14:05:39;9.70;99.90
5394;DHT22;2720;52.396;10.064;2023-04-01T14:08:20;9.60;99.90
5394;DHT22;2720;52.396;10.064;2023-04-01T14:10:59;9.40;99.90
5394;DHT22;2720;52.396;10.064;2023-04-01T14:13:41;9.40;99.90
5394;DHT22;2720;52.396;10.064;2023-04-01T14:16:47;9.30;99.90
5394;DHT22;2720;52.396;10.064;2023-04-01T14:19:25;9.30;99.90
5394;DHT22;2720;52.396;10.064;2023-04-01T14:22:00;9.10;99.90
5394;DHT22;2720;52.396;10.064;2023-04-01T14:24:41;9.10;99.90
5394;DHT22;2720;52.396;10.064;2023-04-01T14:27:35;9.00;99.90
5394;DHT22;2720;52.396;10.064;2023-04-01T14:30:31;8.90;99.90
5394;DHT22;2720;52.396;10.064;2023-04-01T14:33:10;8.80;99.90
5394;DHT22;2720;52.396;10.064;2023-04-01T14:35:46;8.80;99.90
5394;DHT22;2720;52.396;10.064;2023-04-01T14:38:35;8.80;99.90
5394;DHT22;2720;52.396;10.064;2023-04-01T14:41:20;8.70;99.90
5394;DHT22;2720;52.396;10.064;2023-04-01T14:44:24;8.70;99.90
5394;DHT22;2720;52.396;10.064;2023-04-01T14:50:05;8.60;99.90
5394;DHT22;2720;52.396;10.064;2023-04-01T14:52:36;8.60;99.90
5394;DHT22;2720;52.396;10.064;2023-04-01T14:55:27;8.50;99.90
5394;DHT22;2720;52.396;10.064;2023-04-01T14:57:59;8.50;99.90
5394;DHT22;2720;52.396;10.064;2023-04-01T15:00:28;8.40;99.90
5394;DHT22;2720;52.396;10.064;2023-04-01T15:03:14;8.30;99.90
5394;DHT22;2720;52.396;10.064;2023-04-01T15:05:49;8.30;99.90
5394;DHT22;2720;52.396;10.064;2023-04-01T15:08:20;8.30;99.90
5394;DHT22;2720;52.396;10.064;2023-04-01T15:11:05;8.20;99.90
5394;DHT22;2720;52.396;10.064;2023-04-01T15:13:58;8.20;99.90
5394;DHT22;2720;52.396;10.064;2023-04-01T15:16:34;8.10;99.90
5394;DHT22;2720;52.396;10.064;2023-04-01T15:21:48;8.10;99.90
5394;DHT22;2720;52.396;10.064;2023-04-01T15:24:21;8.10;99.90
5394;DHT22;2720;52.396;10.064;2023-04-01T15:27:06;8.00;99.90
5394;DHT22;2720;52.396;10.064;2023-04-01T15:32:17;7.90;99.90
5394;DHT22;2720;52.396;10.064;2023-04-01T15:34:50;8.00;99.90
5394;DHT22;2720;52.396;10.064;2023-04-01T15:37:29;8.00;99.90
5394;DHT22;2720;52.396;10.064;2023-04-01T15:40:03;7.90;99.90
5394;DHT22;2720;52.396;10.064;2023-04-01T15:42:54;7.90;99.90
5394;DHT22;2720;52.396;10.064;2023-04-01T15:45:33;7.90;99.90
5394;DHT22;2720;52.396;10.064;2023-04-01T15:50:53;7.70;99.90
5394;DHT22;2720;52.396;10.064;2023-04-01T15:56:25;7.70;99.90
5394;DHT22;2720;52.396;10.064;2023-04-01T15:59:01;7.60;99.90
5394;DHT22;2720;52.396;10.064;2023-04-01T16:01:38;7.60;99.90
5394;DHT22;2720;52.396;10.064;2023-04-01T16:04:24;7.50;99.90
5394;DHT22;2720;52.396;10.064;2023-04-01T16:07:03;7.40;99.90
5394;DHT22;2720;52.396;10.064;2023-04-01T16:09:59;7.30;99.90
5394;DHT22;2720;52.396;10.064;2023-04-01T16:12:43;7.30;99.90
5394;DHT22;2720;52.396;10.064;2023-04-01T16:15:17;7.30;99.90
5394;DHT22;2720;52.396;10.064;2023-04-01T16:18:08;7.30;99.90
5394;DHT22;2720;52.396;10.064;2023-04-01T16:20:44;7.30;99.90
5394;DHT22;2720;52.396;10.064;2023-04-01T16:23:18;7.20;99.90
5394;DHT22;2720;52.396;10.064;2023-04-01T16:25:52;7.20;99.90
5394;DHT22;2720;52.396;10.064;2023-04-01T16:28:24;7.20;99.90
5394;DHT22;2720;52.396;10.064;2023-04-01T16:30:57;7.10;99.90
5394;DHT22;2720;52.396;10.064;2023-04-01T16:33:35;7.00;99.90
5394;DHT22;2720;52.396;10.064;2023-04-01T16:36:10;6.90;99.90
5394;DHT22;2720;52.396;10.064;2023-04-01T16:38:46;6.90;99.90
5394;DHT22;2720;52.396;10.064;2023-04-01T16:41:17;6.90;99.90
5394;DHT22;2720;52.396;10.064;2023-04-01T16:43:47;6.90;99.90
5394;DHT22;2720;52.396;10.064;2023-04-01T16:46:31;6.80;99.90
5394;DHT22;2720;52.396;10.064;2023-04-01T16:49:01;6.80;99.90
5394;DHT22;2720;52.396;10.064;2023-04-01T16:51:37;6.80;99.90
5394;DHT22;2720;52.396;10.064;2023-04-01T16:54:14;6.70;99.90
5394;DHT22;2720;52.396;10.064;2023-04-01T16:56:47;6.70;99.90
5394;DHT22;2720;52.396;10.064;2023-04-01T16:59:19;6.60;99.90
5394;DHT22;2720;52.396;10.064;2023-04-01T17:01:53;6.60;99.90
5394;DHT22;2720;52.396;10.064;2023-04-01T17:04:30;6.60;99.90
5394;DHT22;2720;52.396;10.064;2023-04-01T17:07:06;6.50;99.90
5394;DHT22;2720;52.396;10.064;2023-04-01T17:09:46;6.50;99.90
5394;DHT22;2720;52.396;10.064;2023-04-01T17:12:21;6.40;99.90
5394;DHT22;2720;52.396;10.064;2023-04-01T17:14:54;6.40;99.90
5394;DHT22;2720;52.396;10.064;2023-04-01T17:17:37;6.30;99.90
5394;DHT22;2720;52.396;10.064;2023-04-01T17:20:27;6.30;99.90
5394;DHT22;2720;52.396;10.064;2023-04-01T17:23:00;6.20;99.90
5394;DHT22;2720;52.396;10.064;2023-04-01T17:25:43;6.20;99.90
5394;DHT22;2720;52.396;10.064;2023-04-01T17:28:23;6.10;99.90
5394;DHT22;2720;52.396;10.064;2023-04-01T17:31:00;6.10;99.90
5394;DHT22;2720;52.396;10.064;2023-04-01T17:33:39;6.10;99.90
5394;DHT22;2720;52.396;10.064;2023-04-01T17:36:16;6.00;99.90
5394;DHT22;2720;52.396;10.064;2023-04-01T17:38:57;6.10;99.90
5394;DHT22;2720;52.396;10.064;2023-04-01T17:41:41;6.00;99.90
5394;DHT22;2720;52.396;10.064;2023-04-01T17:44:18;6.00;99.90
5394;DHT22;2720;52.396;10.064;2023-04-01T17:47:06;5.90;99.90
5394;DHT22;2720;52.396;10.064;2023-04-01T17:49:38;5.90;99.90
5394;DHT22;2720;52.396;10.064;2023-04-01T17:52:13;5.90;99.90
5394;DHT22;2720;52.396;10.064;2023-04-01T17:54:51;5.90;99.90
5394;DHT22;2720;52.396;10.064;2023-04-01T17:57:34;5.90;99.90
5394;DHT22;2720;52.396;10.064;2023-04-01T18:00:19;5.80;99.90
5394;DHT22;2720;52.396;10.064;2023-04-01T18:02:59;5.80;99.90
5394;DHT22;2720;52.396;10.064;2023-04-01T18:05:37;5.80;99.90
5394;DHT22;2720;52.396;10.064;2023-04-01T18:08:13;5.70;99.90
5394;DHT22;2720;52.396;10.064;2023-04-01T18:10:51;5.70;99.90
5394;DHT22;2720;52.396;10.064;2023-04-01T18:16:41;5.70;99.90
5394;DHT22;2720;52.396;10.064;2023-04-01T18:19:17;5.70;99.90
5394;DHT22;2720;52.396;10.064;2023-04-01T18:21:49;5.60;99.90
5394;DHT22;2720;52.396;10.064;2023-04-01T18:24:24;5.60;99.90
5394;DHT22;2720;52.396;10.064;2023-04-01T18:27:02;5.60;99.90
5394;DHT22;2720;52.396;10.064;2023-04-01T18:29:37;5.60;99.90
5394;DHT22;2720;52.396;10.064;2023-04-01T18:32:17;5.60;99.90
5394;DHT22;2720;52.396;10.064;2023-04-01T18:34:55;5.50;99.90
5394;DHT22;2720;52.396;10.064;2023-04-01T18:37:27;5.50;99.90
5394;DHT22;2720;52.396;10.064;2023-04-01T18:39:58;5.40;99.90
5394;DHT22;2720;52.396;10.064;2023-04-01T18:42:33;5.40;99.90
5394;DHT22;2720;52.396;10.064;2023-04-01T18:45:18;5.40;99.90
5394;DHT22;2720;52.396;10.064;2023-04-01T18:47:54;5.30;99.90
5394;DHT22;2720;52.396;10.064;2023-04-01T18:50:26;5.40;99.90
5394;DHT22;2720;52.396;10.064;2023-04-01T18:52:57;5.30;99.90
5394;DHT22;2720;52.396;10.064;2023-04-01T18:55:34;5.30;99.90
5394;DHT22;2720;52.396;10.064;2023-04-01T19:00:58;5.30;99.90
5394;DHT22;2720;52.396;10.064;2023-04-01T19:06:06;5.30;99.90
5394;DHT22;2720;52.396;10.064;2023-04-01T19:08:37;5.10;99.90
5394;DHT22;2720;52.396;10.064;2023-04-01T19:11:09;5.00;99.90
5394;DHT22;2720;52.396;10.064;2023-04-01T19:13:45;5.10;99.90
5394;DHT22;2720;52.396;10.064;2023-04-01T19:16:25;5.00;99.90